createdAt,value
2023-04-22T00:01:35.152Z,13.90
2023-04-22T00:04:03.107Z,13.80
2023-04-22T00:06:31.901Z,13.70
2023-04-22T00:08:59.145Z,13.70
2023-04-22T00:11:26.456Z,13.60
2023-04-22T00:13:53.681Z,13.50
2023-04-22T00:16:21.552Z,13.40
2023-04-22T00:18:49.108Z,13.40
2023-04-22T00:21:16.457Z,13.30
2023-04-22T00:23:45.249Z,13.30
2023-04-22T00:26:12.469Z,13.30
2023-04-22T00:28:40.473Z,13.30
2023-04-22T00:31:07.847Z,13.20
2023-04-22T00:33:35.172Z,13.20
2023-04-22T00:36:02.633Z,13.10
2023-04-22T00:38:29.923Z,13.10
2023-04-22T00:40:57.776Z,13.10
2023-04-22T00:43:25.187Z,13.00
2023-04-22T00:45:53.105Z,13.10
2023-04-22T00:48:20.990Z,13.10
2023-04-22T00:50:48.607Z,13.10
2023-04-22T00:53:16.450Z,13.20
2023-04-22T00:55:43.762Z,13.20
2023-04-22T00:58:11.265Z,13.30
2023-04-22T01:00:38.596Z,13.30
2023-04-22T01:03:07.371Z,13.40
2023-04-22T01:05:35.083Z,13.40
2023-04-22T01:08:02.559Z,13.40
2023-04-22T01:10:29.818Z,13.40
2023-04-22T01:12:57.044Z,13.40
2023-04-22T01:15:24.417Z,13.30
2023-04-22T01:17:53.600Z,13.30
2023-04-22T01:20:22.764Z,13.30
2023-04-22T01:22:54.897Z,13.30
2023-04-22T01:25:24.949Z,13.30
2023-04-22T01:27:52.828Z,13.20
2023-04-22T01:30:20.771Z,13.20
2023-04-22T01:32:48.369Z,13.20
2023-04-22T01:35:15.767Z,13.10
2023-04-22T01:37:43.066Z,13.10
2023-04-22T01:40:11.246Z,13.10
2023-04-22T01:42:38.897Z,13.00
2023-04-22T01:45:07.400Z,13.00
2023-04-22T01:47:34.641Z,12.90
2023-04-22T01:50:01.890Z,12.90
2023-04-22T01:52:29.560Z,12.80
2023-04-22T01:54:58.569Z,12.80
2023-04-22T01:57:25.820Z,12.70
2023-04-22T01:59:54.116Z,12.70
2023-04-22T02:02:22.817Z,12.60
2023-04-22T02:04:50.746Z,12.60
2023-04-22T02:07:18.456Z,12.60
2023-04-22T02:09:46.684Z,12.50
2023-04-22T02:12:15.142Z,12.50
2023-04-22T02:14:42.557Z,12.40
2023-04-22T02:17:09.920Z,12.40
2023-04-22T02:19:37.340Z,12.30
2023-04-22T02:22:04.792Z,12.30
2023-04-22T02:24:32.184Z,12.20
2023-04-22T02:27:00.312Z,12.20
2023-04-22T02:29:28.766Z,12.20
2023-04-22T02:31:59.956Z,12.20
2023-04-22T02:34:27.928Z,12.20
2023-04-22T02:36:55.427Z,12.20
2023-04-22T02:39:22.878Z,12.20
2023-04-22T02:41:50.230Z,12.20
2023-04-22T02:44:17.701Z,12.10
2023-04-22T02:46:45.147Z,12.20
2023-04-22T02:49:12.473Z,12.10
2023-04-22T02:51:41.054Z,12.10
2023-04-22T02:54:08.475Z,12.10
2023-04-22T02:56:36.245Z,12.10
2023-04-22T02:59:03.527Z,12.00
2023-04-22T03:01:32.142Z,12.00
2023-04-22T03:04:02.750Z,11.90
2023-04-22T03:06:31.667Z,11.90
2023-04-22T03:08:59.298Z,11.90
2023-04-22T03:11:27.060Z,11.80
2023-04-22T03:13:54.454Z,11.80
2023-04-22T03:16:24.334Z,11.80
2023-04-22T03:18:53.933Z,11.80
2023-04-22T03:21:22.321Z,11.80
2023-04-22T03:23:51.757Z,11.80
2023-04-22T03:26:19.262Z,11.80
2023-04-22T03:28:46.764Z,11.80
2023-04-22T03:31:14.281Z,11.80
2023-04-22T03:33:42.007Z,11.80
2023-04-22T03:36:18.555Z,11.80
2023-04-22T03:38:46.180Z,11.80
2023-04-22T03:41:13.577Z,11.80
2023-04-22T03:43:45.314Z,11.80
2023-04-22T03:46:12.549Z,11.80
2023-04-22T03:48:42.794Z,11.80
2023-04-22T03:51:16.457Z,11.70
2023-04-22T03:53:43.752Z,11.70
2023-04-22T03:56:16.452Z,11.60
2023-04-22T03:58:46.512Z,11.60
2023-04-22T04:01:14.196Z,11.60
2023-04-22T04:03:45.078Z,11.50
2023-04-22T04:06:13.900Z,11.50
2023-04-22T04:08:41.322Z,11.50
2023-04-22T04:11:10.642Z,11.40
2023-04-22T04:13:38.681Z,11.40
2023-04-22T04:16:17.906Z,11.30
2023-04-22T04:18:51.767Z,11.30
2023-04-22T04:21:21.218Z,11.30
2023-04-22T04:23:51.487Z,11.30
2023-04-22T04:26:23.880Z,11.30
2023-04-22T04:28:56.083Z,11.30
2023-04-22T04:31:24.969Z,11.30
2023-04-22T04:33:53.598Z,11.30
2023-04-22T04:36:21.140Z,11.30
2023-04-22T04:38:49.161Z,11.40
2023-04-22T04:41:16.625Z,11.40
2023-04-22T04:43:46.357Z,11.50
2023-04-22T04:46:34.689Z,11.50
2023-04-22T04:49:02.570Z,11.60
2023-04-22T04:51:32.736Z,11.60
2023-04-22T04:54:01.527Z,11.60
2023-04-22T04:56:34.799Z,11.60
2023-04-22T04:59:02.221Z,11.70
2023-04-22T05:01:29.762Z,11.70
2023-04-22T05:04:02.962Z,11.90
2023-04-22T05:06:31.380Z,12.10
2023-04-22T05:09:03.407Z,12.40
2023-04-22T05:11:30.811Z,12.80
2023-04-22T05:14:00.660Z,13.30
2023-04-22T05:16:33.135Z,13.90
2023-04-22T05:19:01.011Z,14.50
2023-04-22T05:21:28.743Z,15.10
2023-04-22T05:23:56.466Z,15.80
2023-04-22T05:26:24.454Z,16.40
2023-04-22T05:28:52.009Z,16.90
2023-04-22T05:31:20.073Z,17.20
2023-04-22T05:33:48.007Z,17.40
2023-04-22T05:36:15.393Z,17.60
2023-04-22T05:38:44.173Z,17.70
2023-04-22T05:41:11.481Z,17.80
2023-04-22T05:43:38.694Z,17.90
2023-04-22T05:46:14.650Z,18.00
2023-04-22T05:48:43.182Z,18.20
2023-04-22T05:51:23.699Z,18.60
2023-04-22T05:53:51.267Z,19.00
2023-04-22T05:56:20.959Z,19.50
2023-04-22T05:58:48.297Z,20.10
2023-04-22T06:01:18.635Z,20.70
2023-04-22T06:03:58.965Z,21.40
2023-04-22T06:06:27.555Z,22.10
2023-04-22T06:08:55.059Z,22.70
2023-04-22T06:11:22.501Z,23.30
2023-04-22T06:13:49.852Z,23.80
2023-04-22T06:16:17.714Z,24.30
2023-04-22T06:18:45.501Z,24.70
2023-04-22T06:21:13.012Z,25.20
2023-04-22T06:23:40.801Z,25.70
2023-04-22T06:26:08.405Z,26.20
2023-04-22T06:28:37.834Z,26.60
2023-04-22T06:31:10.995Z,27.00
2023-04-22T06:33:38.672Z,27.40
2023-04-22T06:36:06.521Z,27.70
2023-04-22T06:38:35.516Z,27.90
2023-04-22T06:41:22.741Z,28.10
2023-04-22T06:43:51.839Z,28.30
2023-04-22T06:46:19.043Z,28.50
2023-04-22T06:49:08.829Z,28.70
2023-04-22T06:51:55.157Z,29.00
2023-04-22T06:54:22.644Z,29.20
2023-04-22T06:56:51.094Z,29.40
2023-04-22T06:59:18.579Z,29.60
2023-04-22T07:01:47.470Z,29.60
2023-04-22T07:04:15.157Z,29.70
2023-04-22T07:06:43.549Z,29.70
2023-04-22T07:09:13.612Z,29.90
2023-04-22T07:11:41.058Z,29.80
2023-04-22T07:14:13.623Z,29.80
2023-04-22T07:16:41.437Z,29.90
2023-04-22T07:19:09.393Z,29.90
2023-04-22T07:21:36.614Z,30.00
2023-04-22T07:24:04.034Z,29.90
2023-04-22T07:26:32.414Z,29.90
2023-04-22T07:28:59.750Z,29.80
2023-04-22T07:31:27.104Z,29.70
2023-04-22T07:33:54.313Z,29.50
2023-04-22T07:36:21.718Z,29.40
2023-04-22T07:38:49.087Z,29.20
2023-04-22T07:41:16.458Z,29.20
2023-04-22T07:43:43.773Z,29.20
2023-04-22T07:46:11.306Z,29.10
2023-04-22T07:48:38.786Z,29.20
2023-04-22T07:51:06.114Z,29.20
2023-04-22T07:53:33.446Z,29.20
2023-04-22T07:56:04.441Z,29.30
2023-04-22T07:58:31.816Z,29.40
2023-04-22T08:00:59.284Z,29.40
2023-04-22T08:03:26.952Z,29.60
2023-04-22T08:05:56.602Z,29.60
2023-04-22T08:08:24.727Z,29.50
2023-04-22T08:10:52.055Z,29.30
2023-04-22T08:13:19.322Z,29.10
2023-04-22T08:15:46.718Z,29.00
2023-04-22T08:18:14.371Z,28.90
2023-04-22T08:20:41.820Z,28.70
2023-04-22T08:23:09.323Z,28.60
2023-04-22T08:25:36.995Z,28.60
2023-04-22T08:28:04.455Z,28.50
2023-04-22T08:30:31.831Z,28.60
2023-04-22T08:32:59.214Z,28.60
2023-04-22T08:35:27.069Z,28.80
2023-04-22T08:37:54.466Z,28.90
2023-04-22T08:40:22.011Z,29.10
2023-04-22T08:42:51.981Z,29.20
2023-04-22T08:45:20.044Z,29.30
2023-04-22T08:47:52.275Z,29.40
2023-04-22T08:50:22.386Z,29.40
2023-04-22T08:52:49.724Z,29.40
2023-04-22T08:55:16.995Z,29.30
2023-04-22T08:57:44.851Z,29.20
2023-04-22T09:00:13.288Z,29.20
2023-04-22T09:02:45.065Z,29.20
2023-04-22T09:05:14.865Z,29.30
2023-04-22T09:07:42.318Z,29.40
2023-04-22T09:10:11.815Z,29.40
2023-04-22T09:12:41.170Z,29.40
2023-04-22T09:15:09.705Z,29.50
2023-04-22T09:17:41.277Z,29.50
2023-04-22T09:20:09.741Z,29.50
2023-04-22T09:22:44.198Z,29.50
2023-04-22T09:25:23.328Z,29.50
2023-04-22T09:27:52.903Z,29.50
2023-04-22T09:30:31.997Z,29.50
2023-04-22T09:33:01.568Z,29.50
2023-04-22T09:35:33.892Z,29.50
2023-04-22T09:38:03.285Z,29.50
2023-04-22T09:40:31.863Z,29.20
2023-04-22T09:43:01.629Z,29.00
2023-04-22T09:45:32.937Z,28.90
2023-04-22T09:48:12.061Z,28.70
2023-04-22T09:50:42.963Z,28.50
2023-04-22T09:53:12.482Z,28.20
2023-04-22T09:55:58.041Z,28.00
2023-04-22T09:58:27.538Z,27.80
2023-04-22T10:00:57.012Z,27.70
2023-04-22T10:03:24.818Z,27.50
2023-04-22T10:05:52.383Z,27.40
2023-04-22T10:08:19.824Z,27.20
2023-04-22T10:10:47.245Z,27.10
2023-04-22T10:13:14.671Z,26.90
2023-04-22T10:15:50.508Z,26.80
2023-04-22T10:18:26.990Z,26.60
2023-04-22T10:20:56.897Z,26.60
2023-04-22T10:23:25.082Z,26.50
2023-04-22T10:25:56.207Z,26.40
2023-04-22T10:28:27.440Z,26.20
2023-04-22T10:30:54.875Z,26.10
2023-04-22T10:33:28.423Z,25.90
2023-04-22T10:36:21.948Z,25.80
2023-04-22T10:38:55.519Z,25.70
2023-04-22T10:41:24.478Z,25.60
2023-04-22T10:44:02.523Z,25.50
2023-04-22T10:46:37.420Z,25.40
2023-04-22T10:49:13.548Z,25.30
2023-04-22T10:51:44.652Z,25.20
2023-04-22T10:54:31.490Z,25.10
2023-04-22T10:57:14.632Z,25.10
2023-04-22T11:00:15.751Z,25.10
2023-04-22T11:02:46.842Z,25.10
2023-04-22T11:05:20.881Z,25.10
2023-04-22T11:07:50.089Z,25.10
2023-04-22T11:10:42.964Z,25.10
2023-04-22T11:13:16.761Z,25.00
2023-04-22T11:15:46.370Z,24.90
2023-04-22T11:18:18.362Z,24.90
2023-04-22T11:20:48.339Z,24.80
2023-04-22T11:23:19.716Z,24.80
2023-04-22T11:25:47.019Z,24.80
2023-04-22T11:28:14.370Z,24.70
2023-04-22T11:30:41.882Z,24.60
2023-04-22T11:33:09.309Z,24.60
2023-04-22T11:35:38.091Z,24.60
2023-04-22T11:38:06.456Z,24.60
2023-04-22T11:40:38.577Z,24.60
2023-04-22T11:43:08.202Z,24.60
2023-04-22T11:45:37.284Z,24.60
2023-04-22T11:48:07.191Z,24.60
2023-04-22T11:50:37.032Z,24.70
2023-04-22T11:53:13.213Z,24.70
2023-04-22T11:55:41.668Z,24.70
2023-04-22T11:58:11.494Z,24.80
2023-04-22T12:00:46.345Z,24.90
2023-04-22T12:03:21.033Z,24.90
2023-04-22T12:06:03.775Z,25.00
2023-04-22T12:08:33.591Z,25.10
2023-04-22T12:11:03.739Z,25.10
2023-04-22T12:13:32.920Z,25.20
2023-04-22T12:16:01.473Z,25.30
2023-04-22T12:18:36.160Z,25.40
2023-04-22T12:21:14.538Z,25.50
2023-04-22T12:23:49.767Z,25.50
2023-04-22T12:26:19.586Z,25.60
2023-04-22T12:28:47.398Z,25.60
2023-04-22T12:31:15.246Z,25.60
2023-04-22T12:33:43.461Z,25.60
2023-04-22T12:36:11.176Z,25.50
2023-04-22T12:38:39.240Z,25.50
2023-04-22T12:41:07.431Z,25.50
2023-04-22T12:43:39.271Z,25.40
2023-04-22T12:46:07.832Z,25.30
2023-04-22T12:48:37.387Z,25.40
2023-04-22T12:51:06.487Z,25.30
2023-04-22T12:53:34.176Z,25.40
2023-04-22T12:56:01.707Z,25.40
2023-04-22T12:58:29.077Z,25.50
2023-04-22T13:00:56.456Z,25.50
2023-04-22T13:03:24.128Z,25.50
2023-04-22T13:05:52.713Z,25.60
2023-04-22T13:08:20.116Z,25.60
2023-04-22T13:10:47.832Z,25.60
2023-04-22T13:13:19.096Z,25.60
2023-04-22T13:15:49.867Z,25.50
2023-04-22T13:18:17.368Z,25.40
2023-04-22T13:20:45.042Z,25.50
2023-04-22T13:23:13.209Z,25.40
2023-04-22T13:25:40.745Z,25.40
2023-04-22T13:28:08.382Z,25.40
2023-04-22T13:30:36.295Z,25.50
2023-04-22T13:33:03.572Z,25.60
2023-04-22T13:35:31.069Z,25.60
2023-04-22T13:37:58.776Z,25.70
2023-04-22T13:40:27.236Z,25.70
2023-04-22T13:42:55.161Z,25.70
2023-04-22T13:45:22.740Z,25.70
2023-04-22T13:47:50.268Z,25.70
2023-04-22T13:50:17.603Z,25.80
2023-04-22T13:52:44.892Z,25.80
2023-04-22T13:55:12.202Z,25.80
2023-04-22T13:57:39.418Z,25.80
2023-04-22T14:00:07.342Z,25.80
2023-04-22T14:02:39.387Z,25.80
2023-04-22T14:05:07.446Z,25.80
2023-04-22T14:07:34.755Z,25.90
2023-04-22T14:10:02.215Z,26.00
2023-04-22T14:12:29.606Z,26.00
2023-04-22T14:14:56.808Z,26.10
2023-04-22T14:17:24.030Z,26.10
2023-04-22T14:19:51.214Z,26.20
2023-04-22T14:22:18.699Z,26.30
2023-04-22T14:24:46.034Z,26.30
2023-04-22T14:27:13.280Z,26.40
2023-04-22T14:29:40.803Z,26.40
2023-04-22T14:32:08.382Z,26.40
2023-04-22T14:34:35.721Z,26.40
2023-04-22T14:37:03.090Z,26.40
2023-04-22T14:39:30.497Z,26.40
2023-04-22T14:41:57.971Z,26.50
2023-04-22T14:44:26.058Z,26.50
2023-04-22T14:46:53.564Z,26.50
2023-04-22T14:49:21.084Z,26.50
2023-04-22T14:51:48.912Z,26.60
2023-04-22T14:54:16.321Z,26.60
2023-04-22T14:56:43.659Z,26.60
2023-04-22T14:59:11.031Z,26.60
2023-04-22T15:01:41.647Z,26.60
2023-04-22T15:04:12.429Z,26.60
2023-04-22T15:06:39.754Z,26.60
2023-04-22T15:09:07.253Z,26.50
2023-04-22T15:11:34.870Z,26.40
2023-04-22T15:14:02.543Z,26.30
2023-04-22T15:16:30.313Z,26.20
2023-04-22T15:18:57.798Z,26.10
2023-04-22T15:21:25.269Z,26.00
2023-04-22T15:23:52.992Z,25.90
2023-04-22T15:26:20.549Z,25.80
2023-04-22T15:28:50.669Z,25.80
2023-04-22T15:31:20.749Z,25.70
2023-04-22T15:33:48.232Z,25.80
2023-04-22T15:36:18.082Z,25.80
2023-04-22T15:38:45.308Z,25.80
2023-04-22T15:41:13.102Z,25.80
2023-04-22T15:43:40.585Z,25.80
2023-04-22T15:46:08.951Z,25.80
2023-04-22T15:48:36.383Z,25.70
2023-04-22T15:51:03.969Z,25.70
2023-04-22T15:53:31.170Z,25.60
2023-04-22T15:55:58.580Z,25.50
2023-04-22T15:58:26.787Z,25.40
2023-04-22T16:00:55.112Z,25.40
2023-04-22T16:03:23.811Z,25.30
2023-04-22T16:05:51.267Z,25.30
2023-04-22T16:08:18.672Z,25.30
2023-04-22T16:10:45.900Z,25.20
2023-04-22T16:13:13.268Z,25.10
2023-04-22T16:15:40.757Z,25.10
2023-04-22T16:18:08.383Z,25.00
2023-04-22T16:20:35.719Z,24.90
2023-04-22T16:23:03.277Z,24.90
2023-04-22T16:25:30.726Z,24.80
2023-04-22T16:27:58.107Z,24.80
2023-04-22T16:30:25.468Z,24.70
2023-04-22T16:32:53.009Z,24.70
2023-04-22T16:35:20.707Z,24.60
2023-04-22T16:37:48.077Z,24.60
2023-04-22T16:40:15.468Z,24.50
2023-04-22T16:42:42.969Z,24.50
2023-04-22T16:45:10.697Z,24.50
2023-04-22T16:47:38.126Z,24.40
2023-04-22T16:50:06.661Z,24.30
2023-04-22T16:52:34.178Z,24.30
2023-04-22T16:55:01.712Z,24.20
2023-04-22T16:57:29.204Z,24.20
2023-04-22T16:59:57.003Z,24.20
2023-04-22T17:02:24.650Z,24.20
2023-04-22T17:04:52.004Z,24.10
2023-04-22T17:07:19.398Z,24.10
2023-04-22T17:09:48.687Z,24.10
2023-04-22T17:12:16.066Z,24.00
2023-04-22T17:14:43.545Z,23.90
2023-04-22T17:17:10.913Z,23.90
2023-04-22T17:19:38.257Z,23.80
2023-04-22T17:22:05.673Z,23.80
2023-04-22T17:24:32.868Z,23.70
2023-04-22T17:27:01.537Z,23.70
2023-04-22T17:29:28.938Z,23.70
2023-04-22T17:31:56.453Z,23.60
2023-04-22T17:34:24.156Z,23.60
2023-04-22T17:36:51.602Z,23.50
2023-04-22T17:39:19.314Z,23.50
2023-04-22T17:41:46.728Z,23.40
2023-04-22T17:44:14.111Z,23.40
2023-04-22T17:46:41.791Z,23.40
2023-04-22T17:49:09.557Z,23.30
2023-04-22T17:51:37.217Z,23.30
2023-04-22T17:54:05.232Z,23.20
2023-04-22T17:56:32.840Z,23.20
2023-04-22T17:59:01.021Z,23.10
2023-04-22T18:01:31.968Z,23.10
2023-04-22T18:03:59.667Z,23.00
2023-04-22T18:06:28.837Z,22.90
2023-04-22T18:08:56.255Z,22.90
2023-04-22T18:11:23.855Z,22.80
2023-04-22T18:13:51.270Z,22.80
2023-04-22T18:16:19.061Z,22.70
2023-04-22T18:18:46.482Z,22.70
2023-04-22T18:21:13.870Z,22.70
2023-04-22T18:23:41.445Z,22.60
2023-04-22T18:26:11.605Z,22.60
2023-04-22T18:28:43.405Z,22.50
2023-04-22T18:31:11.178Z,22.50
2023-04-22T18:33:38.507Z,22.40
2023-04-22T18:36:06.066Z,22.40
2023-04-22T18:38:33.246Z,22.30
2023-04-22T18:41:00.656Z,22.30
2023-04-22T18:43:27.997Z,22.30
2023-04-22T18:45:55.323Z,22.30
2023-04-22T18:48:22.820Z,22.20
2023-04-22T18:50:50.525Z,22.20
2023-04-22T18:53:17.887Z,22.20
2023-04-22T18:55:45.634Z,22.10
2023-04-22T18:58:13.678Z,22.10
2023-04-22T19:00:41.109Z,22.10
2023-04-22T19:03:08.805Z,22.00
2023-04-22T19:05:36.192Z,22.00
2023-04-22T19:08:03.371Z,22.00
2023-04-22T19:10:30.756Z,21.90
2023-04-22T19:12:59.302Z,21.90
2023-04-22T19:15:26.610Z,21.90
2023-04-22T19:17:54.072Z,21.80
2023-04-22T19:20:21.616Z,21.80
2023-04-22T19:22:49.483Z,21.80
2023-04-22T19:25:18.651Z,21.70
2023-04-22T19:27:46.164Z,21.70
2023-04-22T19:30:14.718Z,21.70
2023-04-22T19:32:42.501Z,21.60
2023-04-22T19:35:15.610Z,21.60
2023-04-22T19:37:43.266Z,21.60
2023-04-22T19:40:12.098Z,21.60
2023-04-22T19:42:39.566Z,21.50
2023-04-22T19:45:09.078Z,21.50
2023-04-22T19:47:37.490Z,21.40
2023-04-22T19:50:06.524Z,21.40
2023-04-22T19:52:35.099Z,21.30
2023-04-22T19:55:09.188Z,21.30
2023-04-22T19:57:37.679Z,21.30
2023-04-22T20:00:07.041Z,21.30
2023-04-22T20:02:40.002Z,21.30
2023-04-22T20:05:08.297Z,21.30
2023-04-22T20:07:36.594Z,21.30
2023-04-22T20:10:06.305Z,21.20
2023-04-22T20:12:34.123Z,21.20
2023-04-22T20:15:03.164Z,21.20
2023-04-22T20:17:35.542Z,21.10
2023-04-22T20:20:06.749Z,21.10
2023-04-22T20:22:35.170Z,21.10
2023-04-22T20:25:05.281Z,21.00
2023-04-22T20:27:34.132Z,21.00
2023-04-22T20:30:01.985Z,21.00
2023-04-22T20:32:30.268Z,21.00
2023-04-22T20:34:58.697Z,21.00
2023-04-22T20:37:28.288Z,21.00
2023-04-22T20:39:56.464Z,20.90
2023-04-22T20:42:24.779Z,20.90
2023-04-22T20:44:52.546Z,20.90
2023-04-22T20:47:20.612Z,20.90
2023-04-22T20:49:48.216Z,20.80
2023-04-22T20:52:16.335Z,20.80
2023-04-22T20:54:44.003Z,20.80
2023-04-22T20:57:11.740Z,20.70
2023-04-22T20:59:39.048Z,20.70
2023-04-22T21:02:08.399Z,20.60
2023-04-22T21:04:36.382Z,20.60
2023-04-22T21:07:07.102Z,20.60
2023-04-22T21:09:34.861Z,20.60
2023-04-22T21:12:02.345Z,20.50
2023-04-22T21:14:30.013Z,20.50
2023-04-22T21:17:05.152Z,20.50
2023-04-22T21:19:34.072Z,20.40
2023-04-22T21:22:07.072Z,20.50
2023-04-22T21:24:35.579Z,20.50
2023-04-22T21:27:03.517Z,20.50
2023-04-22T21:29:31.033Z,20.50
2023-04-22T21:32:07.932Z,20.50
2023-04-22T21:34:37.690Z,20.60
2023-04-22T21:37:07.158Z,20.60
2023-04-22T21:39:34.631Z,20.60
2023-04-22T21:42:07.757Z,20.60
2023-04-22T21:44:36.935Z,20.60
2023-04-22T21:47:05.076Z,20.60
2023-04-22T21:49:32.536Z,20.50
2023-04-22T21:52:00.174Z,20.50
2023-04-22T21:54:27.598Z,20.40
2023-04-22T21:56:56.227Z,20.30
2023-04-22T21:59:24.712Z,20.20
2023-04-22T22:01:52.615Z,20.20
2023-04-22T22:04:20.523Z,20.10
2023-04-22T22:06:48.777Z,20.10
2023-04-22T22:09:16.041Z,20.00
2023-04-22T22:11:43.351Z,19.90
2023-04-22T22:14:10.623Z,19.90
2023-04-22T22:16:38.319Z,19.80
2023-04-22T22:19:06.412Z,19.80
2023-04-22T22:21:33.755Z,19.70
2023-04-22T22:24:00.953Z,19.70
2023-04-22T22:26:29.078Z,19.60
2023-04-22T22:28:56.518Z,19.60
2023-04-22T22:31:23.853Z,19.50
2023-04-22T22:33:51.150Z,19.40
2023-04-22T22:36:19.231Z,19.40
2023-04-22T22:38:46.491Z,19.40
2023-04-22T22:41:14.035Z,19.30
2023-04-22T22:43:41.497Z,19.30
2023-04-22T22:46:09.007Z,19.20
2023-04-22T22:48:36.739Z,19.20
2023-04-22T22:51:04.063Z,19.20
2023-04-22T22:53:32.984Z,19.10
2023-04-22T22:56:00.461Z,19.10
2023-04-22T22:58:27.815Z,19.10
2023-04-22T23:00:55.184Z,19.00
2023-04-22T23:03:23.296Z,19.00
2023-04-22T23:05:50.604Z,18.90
2023-04-22T23:08:17.879Z,18.90
2023-04-22T23:10:45.394Z,18.90
2023-04-22T23:13:12.837Z,18.80
2023-04-22T23:15:40.484Z,18.80
2023-04-22T23:18:09.003Z,18.80
2023-04-22T23:20:37.021Z,18.70
2023-04-22T23:23:04.836Z,18.70
2023-04-22T23:25:32.496Z,18.70
2023-04-22T23:28:00.554Z,18.60
2023-04-22T23:30:28.214Z,18.60
2023-04-22T23:32:57.654Z,18.60
2023-04-22T23:35:27.310Z,18.60
2023-04-22T23:37:56.622Z,18.50
2023-04-22T23:40:24.177Z,18.50
2023-04-22T23:42:51.533Z,18.50
2023-04-22T23:45:18.898Z,18.50
2023-04-22T23:47:46.346Z,18.40
2023-04-22T23:50:14.078Z,18.40
2023-04-22T23:52:42.490Z,18.50
2023-04-22T23:55:11.875Z,18.40
2023-04-22T23:57:39.386Z,18.50
